sensor_id;sensor_type;location;lat;lon;timestamp;P1;durP1;ratioP1;P2;durP2;ratioP2
9485;SDS011;4781;48.776;9.200;2023-09-08T00:00:12;4.50;;;2.40;;
9485;SDS011;4781;48.776;9.200;2023-09-08T00:02:41;4.55;;;2.47;;
9485;SDS011;4781;48.776;9.200;2023-09-08T00:05:09;4.80;;;2.52;;
9485;SDS011;4781;48.776;9.200;2023-09-08T00:07:38;5.33;;;2.40;;
9485;SDS011;4781;48.776;9.200;2023-09-08T00:10:06;4.87;;;2.40;;
9485;SDS011;4781;48.776;9.200;2023-09-08T00:12:36;4.55;;;2.37;;
9485;SDS011;4781;48.776;9.200;2023-09-08T00:15:05;5.12;;;2.20;;
9485;SDS011;4781;48.776;9.200;2023-09-08T00:17:35;4.05;;;2.30;;
9485;SDS011;4781;48.776;9.200;2023-09-08T00:20:06;4.62;;;2.22;;
9485;SDS011;4781;48.776;9.200;2023-09-08T00:22:34;3.98;;;2.35;;
9485;SDS011;4781;48.776;9.200;2023-09-08T00:25:04;4.15;;;2.00;;
9485;SDS011;4781;48.776;9.200;2023-09-08T00:27:33;4.78;;;2.33;;
9485;SDS011;4781;48.776;9.200;2023-09-08T00:30:01;5.47;;;2.20;;
9485;SDS011;4781;48.776;9.200;2023-09-08T00:32:30;4.60;;;2.25;;
9485;SDS011;4781;48.776;9.200;2023-09-08T00:34:58;4.53;;;2.25;;
9485;SDS011;4781;48.776;9.200;2023-09-08T00:37:27;4.37;;;2.30;;
9485;SDS011;4781;48.776;9.200;2023-09-08T00:39:55;3.45;;;1.70;;
9485;SDS011;4781;48.776;9.200;2023-09-08T00:42:23;4.75;;;2.52;;
9485;SDS011;4781;48.776;9.200;2023-09-08T00:44:52;4.65;;;2.33;;
9485;SDS011;4781;48.776;9.200;2023-09-08T00:47:20;6.05;;;2.55;;
9485;SDS011;4781;48.776;9.200;2023-09-08T00:49:49;5.72;;;2.50;;
9485;SDS011;4781;48.776;9.200;2023-09-08T00:52:17;4.45;;;2.42;;
9485;SDS011;4781;48.776;9.200;2023-09-08T00:54:46;4.05;;;2.15;;
9485;SDS011;4781;48.776;9.200;2023-09-08T00:57:14;5.55;;;2.50;;
9485;SDS011;4781;48.776;9.200;2023-09-08T00:59:43;5.15;;;2.52;;
9485;SDS011;4781;48.776;9.200;2023-09-08T01:02:12;5.25;;;2.40;;
9485;SDS011;4781;48.776;9.200;2023-09-08T01:04:41;4.58;;;2.30;;
9485;SDS011;4781;48.776;9.200;2023-09-08T01:07:11;4.03;;;2.22;;
9485;SDS011;4781;48.776;9.200;2023-09-08T01:09:41;6.10;;;2.50;;
9485;SDS011;4781;48.776;9.200;2023-09-08T01:12:10;5.42;;;2.47;;
9485;SDS011;4781;48.776;9.200;2023-09-08T01:14:39;4.85;;;2.42;;
9485;SDS011;4781;48.776;9.200;2023-09-08T01:17:07;4.62;;;2.15;;
9485;SDS011;4781;48.776;9.200;2023-09-08T01:19:38;5.53;;;2.58;;
9485;SDS011;4781;48.776;9.200;2023-09-08T01:22:11;4.65;;;2.55;;
9485;SDS011;4781;48.776;9.200;2023-09-08T01:25:09;4.05;;;2.50;;
9485;SDS011;4781;48.776;9.200;2023-09-08T01:27:53;5.85;;;2.52;;
9485;SDS011;4781;48.776;9.200;2023-09-08T01:30:25;4.65;;;2.50;;
9485;SDS011;4781;48.776;9.200;2023-09-08T01:32:58;5.78;;;2.50;;
9485;SDS011;4781;48.776;9.200;2023-09-08T01:35:27;4.40;;;2.47;;
9485;SDS011;4781;48.776;9.200;2023-09-08T01:37:55;4.33;;;2.35;;
9485;SDS011;4781;48.776;9.200;2023-09-08T01:40:24;4.58;;;2.55;;
9485;SDS011;4781;48.776;9.200;2023-09-08T01:42:52;4.03;;;2.50;;
9485;SDS011;4781;48.776;9.200;2023-09-08T01:45:20;7.05;;;2.27;;
9485;SDS011;4781;48.776;9.200;2023-09-08T01:47:49;5.42;;;3.12;;
9485;SDS011;4781;48.776;9.200;2023-09-08T01:50:17;5.37;;;2.58;;
9485;SDS011;4781;48.776;9.200;2023-09-08T01:52:47;5.72;;;2.50;;
9485;SDS011;4781;48.776;9.200;2023-09-08T01:55:16;4.35;;;2.30;;
9485;SDS011;4781;48.776;9.200;2023-09-08T01:57:44;5.08;;;2.50;;
9485;SDS011;4781;48.776;9.200;2023-09-08T02:00:13;5.28;;;2.58;;
9485;SDS011;4781;48.776;9.200;2023-09-08T02:02:41;4.28;;;2.17;;
9485;SDS011;4781;48.776;9.200;2023-09-08T02:05:10;6.35;;;2.83;;
9485;SDS011;4781;48.776;9.200;2023-09-08T02:07:39;5.08;;;2.27;;
9485;SDS011;4781;48.776;9.200;2023-09-08T02:10:07;5.12;;;2.75;;
9485;SDS011;4781;48.776;9.200;2023-09-08T02:12:36;5.35;;;2.65;;
9485;SDS011;4781;48.776;9.200;2023-09-08T02:15:05;4.53;;;2.62;;
9485;SDS011;4781;48.776;9.200;2023-09-08T02:17:36;5.58;;;2.50;;
9485;SDS011;4781;48.776;9.200;2023-09-08T02:20:05;4.80;;;2.77;;
9485;SDS011;4781;48.776;9.200;2023-09-08T02:22:34;4.90;;;2.70;;
9485;SDS011;4781;48.776;9.200;2023-09-08T02:25:02;4.22;;;2.42;;
9485;SDS011;4781;48.776;9.200;2023-09-08T02:27:31;4.85;;;2.40;;
9485;SDS011;4781;48.776;9.200;2023-09-08T02:30:00;4.50;;;2.65;;
9485;SDS011;4781;48.776;9.200;2023-09-08T02:32:28;5.60;;;2.72;;
9485;SDS011;4781;48.776;9.200;2023-09-08T02:34:56;5.47;;;2.60;;
9485;SDS011;4781;48.776;9.200;2023-09-08T02:37:25;4.22;;;2.17;;
9485;SDS011;4781;48.776;9.200;2023-09-08T02:39:53;4.67;;;2.60;;
9485;SDS011;4781;48.776;9.200;2023-09-08T02:42:21;4.67;;;2.15;;
9485;SDS011;4781;48.776;9.200;2023-09-08T02:44:50;4.47;;;1.90;;
9485;SDS011;4781;48.776;9.200;2023-09-08T02:47:19;4.70;;;2.33;;
9485;SDS011;4781;48.776;9.200;2023-09-08T02:49:48;5.35;;;2.12;;
9485;SDS011;4781;48.776;9.200;2023-09-08T02:52:16;5.08;;;2.60;;
9485;SDS011;4781;48.776;9.200;2023-09-08T02:54:45;6.00;;;2.60;;
9485;SDS011;4781;48.776;9.200;2023-09-08T02:57:13;5.15;;;2.30;;
9485;SDS011;4781;48.776;9.200;2023-09-08T02:59:42;4.62;;;2.27;;
9485;SDS011;4781;48.776;9.200;2023-09-08T03:02:12;5.15;;;2.40;;
9485;SDS011;4781;48.776;9.200;2023-09-08T03:04:40;5.30;;;2.47;;
9485;SDS011;4781;48.776;9.200;2023-09-08T03:07:09;4.33;;;2.27;;
9485;SDS011;4781;48.776;9.200;2023-09-08T03:09:37;4.30;;;2.75;;
9485;SDS011;4781;48.776;9.200;2023-09-08T03:12:05;4.42;;;2.40;;
9485;SDS011;4781;48.776;9.200;2023-09-08T03:14:34;4.12;;;2.08;;
9485;SDS011;4781;48.776;9.200;2023-09-08T03:17:02;4.33;;;2.30;;
9485;SDS011;4781;48.776;9.200;2023-09-08T03:19:31;3.70;;;2.10;;
9485;SDS011;4781;48.776;9.200;2023-09-08T03:21:59;5.42;;;2.37;;
9485;SDS011;4781;48.776;9.200;2023-09-08T03:24:28;4.15;;;2.30;;
9485;SDS011;4781;48.776;9.200;2023-09-08T03:26:56;4.92;;;2.70;;
9485;SDS011;4781;48.776;9.200;2023-09-08T03:29:24;4.53;;;2.20;;
9485;SDS011;4781;48.776;9.200;2023-09-08T03:31:53;4.08;;;2.37;;
9485;SDS011;4781;48.776;9.200;2023-09-08T03:34:21;4.12;;;2.33;;
9485;SDS011;4781;48.776;9.200;2023-09-08T03:36:52;4.30;;;2.60;;
9485;SDS011;4781;48.776;9.200;2023-09-08T03:39:21;4.05;;;2.47;;
9485;SDS011;4781;48.776;9.200;2023-09-08T03:41:49;5.87;;;2.30;;
9485;SDS011;4781;48.776;9.200;2023-09-08T03:47:05;4.40;;;2.62;;
9485;SDS011;4781;48.776;9.200;2023-09-08T03:49:33;3.95;;;2.40;;
9485;SDS011;4781;48.776;9.200;2023-09-08T03:52:02;5.10;;;2.70;;
9485;SDS011;4781;48.776;9.200;2023-09-08T03:54:32;4.85;;;2.67;;
9485;SDS011;4781;48.776;9.200;2023-09-08T03:57:01;4.22;;;2.35;;
9485;SDS011;4781;48.776;9.200;2023-09-08T03:59:29;4.83;;;2.77;;
9485;SDS011;4781;48.776;9.200;2023-09-08T04:01:58;4.62;;;2.20;;
9485;SDS011;4781;48.776;9.200;2023-09-08T04:04:27;6.10;;;3.15;;
9485;SDS011;4781;48.776;9.200;2023-09-08T04:06:55;4.78;;;2.42;;
9485;SDS011;4781;48.776;9.200;2023-09-08T04:09:24;6.17;;;2.58;;
9485;SDS011;4781;48.776;9.200;2023-09-08T04:11:53;6.30;;;2.72;;
9485;SDS011;4781;48.776;9.200;2023-09-08T04:14:22;4.95;;;2.50;;
9485;SDS011;4781;48.776;9.200;2023-09-08T04:16:52;4.72;;;2.52;;
9485;SDS011;4781;48.776;9.200;2023-09-08T04:19:21;4.08;;;2.37;;
9485;SDS011;4781;48.776;9.200;2023-09-08T04:21:49;4.60;;;2.47;;
9485;SDS011;4781;48.776;9.200;2023-09-08T04:24:18;4.67;;;2.85;;
9485;SDS011;4781;48.776;9.200;2023-09-08T04:26:46;4.75;;;2.55;;
9485;SDS011;4781;48.776;9.200;2023-09-08T04:29:15;5.53;;;2.80;;
9485;SDS011;4781;48.776;9.200;2023-09-08T04:31:43;4.57;;;2.60;;
9485;SDS011;4781;48.776;9.200;2023-09-08T04:34:11;5.00;;;2.47;;
9485;SDS011;4781;48.776;9.200;2023-09-08T04:36:40;5.65;;;2.60;;
9485;SDS011;4781;48.776;9.200;2023-09-08T04:39:09;5.62;;;2.55;;
9485;SDS011;4781;48.776;9.200;2023-09-08T04:41:37;5.42;;;2.70;;
9485;SDS011;4781;48.776;9.200;2023-09-08T04:44:05;4.50;;;2.27;;
9485;SDS011;4781;48.776;9.200;2023-09-08T04:46:34;4.55;;;2.35;;
9485;SDS011;4781;48.776;9.200;2023-09-08T04:49:03;5.35;;;2.35;;
9485;SDS011;4781;48.776;9.200;2023-09-08T04:51:31;5.12;;;2.75;;
9485;SDS011;4781;48.776;9.200;2023-09-08T04:54:00;4.10;;;2.42;;
9485;SDS011;4781;48.776;9.200;2023-09-08T04:56:28;5.80;;;3.08;;
9485;SDS011;4781;48.776;9.200;2023-09-08T04:58:56;5.75;;;2.83;;
9485;SDS011;4781;48.776;9.200;2023-09-08T05:01:27;4.62;;;2.52;;
9485;SDS011;4781;48.776;9.200;2023-09-08T05:03:57;5.67;;;2.30;;
9485;SDS011;4781;48.776;9.200;2023-09-08T05:06:28;4.83;;;2.00;;
9485;SDS011;4781;48.776;9.200;2023-09-08T05:08:58;4.72;;;2.52;;
9485;SDS011;4781;48.776;9.200;2023-09-08T05:11:27;4.40;;;2.30;;
9485;SDS011;4781;48.776;9.200;2023-09-08T05:13:55;5.95;;;2.90;;
9485;SDS011;4781;48.776;9.200;2023-09-08T05:16:24;4.62;;;2.33;;
9485;SDS011;4781;48.776;9.200;2023-09-08T05:18:54;5.95;;;2.50;;
9485;SDS011;4781;48.776;9.200;2023-09-08T05:21:22;5.40;;;2.20;;
9485;SDS011;4781;48.776;9.200;2023-09-08T05:23:51;4.90;;;2.62;;
9485;SDS011;4781;48.776;9.200;2023-09-08T05:26:20;7.58;;;3.05;;
9485;SDS011;4781;48.776;9.200;2023-09-08T05:28:49;5.87;;;2.47;;
9485;SDS011;4781;48.776;9.200;2023-09-08T05:31:17;7.28;;;2.70;;
9485;SDS011;4781;48.776;9.200;2023-09-08T05:33:45;4.72;;;2.33;;
9485;SDS011;4781;48.776;9.200;2023-09-08T05:36:14;4.62;;;2.67;;
9485;SDS011;4781;48.776;9.200;2023-09-08T05:38:42;5.08;;;2.70;;
9485;SDS011;4781;48.776;9.200;2023-09-08T05:41:11;5.97;;;2.70;;
9485;SDS011;4781;48.776;9.200;2023-09-08T05:43:39;5.47;;;2.72;;
9485;SDS011;4781;48.776;9.200;2023-09-08T05:46:07;5.35;;;2.30;;
9485;SDS011;4781;48.776;9.200;2023-09-08T05:48:36;5.55;;;2.85;;
9485;SDS011;4781;48.776;9.200;2023-09-08T05:51:04;5.15;;;3.02;;
9485;SDS011;4781;48.776;9.200;2023-09-08T05:53:33;4.33;;;2.47;;
9485;SDS011;4781;48.776;9.200;2023-09-08T05:56:01;5.25;;;2.47;;
9485;SDS011;4781;48.776;9.200;2023-09-08T05:58:29;4.55;;;2.30;;
9485;SDS011;4781;48.776;9.200;2023-09-08T06:00:58;4.83;;;2.60;;
9485;SDS011;4781;48.776;9.200;2023-09-08T06:03:30;5.60;;;2.83;;
9485;SDS011;4781;48.776;9.200;2023-09-08T06:05:58;7.37;;;3.25;;
9485;SDS011;4781;48.776;9.200;2023-09-08T06:08:26;6.00;;;3.37;;
9485;SDS011;4781;48.776;9.200;2023-09-08T06:10:55;5.85;;;3.52;;
9485;SDS011;4781;48.776;9.200;2023-09-08T06:13:23;5.60;;;3.08;;
9485;SDS011;4781;48.776;9.200;2023-09-08T06:15:52;6.65;;;3.60;;
9485;SDS011;4781;48.776;9.200;2023-09-08T06:18:20;7.37;;;3.80;;
9485;SDS011;4781;48.776;9.200;2023-09-08T06:20:49;7.37;;;3.65;;
9485;SDS011;4781;48.776;9.200;2023-09-08T06:23:19;5.87;;;3.47;;
9485;SDS011;4781;48.776;9.200;2023-09-08T06:25:48;5.62;;;2.98;;
9485;SDS011;4781;48.776;9.200;2023-09-08T06:28:17;6.42;;;3.02;;
9485;SDS011;4781;48.776;9.200;2023-09-08T06:30:45;5.55;;;3.00;;
9485;SDS011;4781;48.776;9.200;2023-09-08T06:33:14;8.45;;;4.12;;
9485;SDS011;4781;48.776;9.200;2023-09-08T06:35:42;7.15;;;3.62;;
9485;SDS011;4781;48.776;9.200;2023-09-08T06:38:12;5.28;;;3.40;;
9485;SDS011;4781;48.776;9.200;2023-09-08T06:40:40;8.05;;;3.40;;
9485;SDS011;4781;48.776;9.200;2023-09-08T06:43:08;5.50;;;3.40;;
9485;SDS011;4781;48.776;9.200;2023-09-08T06:45:40;6.70;;;3.67;;
9485;SDS011;4781;48.776;9.200;2023-09-08T06:48:08;6.37;;;3.30;;
9485;SDS011;4781;48.776;9.200;2023-09-08T06:50:36;7.17;;;3.77;;
9485;SDS011;4781;48.776;9.200;2023-09-08T06:53:05;6.22;;;2.90;;
9485;SDS011;4781;48.776;9.200;2023-09-08T06:55:33;5.80;;;3.10;;
9485;SDS011;4781;48.776;9.200;2023-09-08T06:58:02;6.97;;;3.65;;
9485;SDS011;4781;48.776;9.200;2023-09-08T07:00:30;7.08;;;3.42;;
9485;SDS011;4781;48.776;9.200;2023-09-08T07:02:59;10.20;;;3.67;;
9485;SDS011;4781;48.776;9.200;2023-09-08T07:05:28;6.15;;;3.10;;
9485;SDS011;4781;48.776;9.200;2023-09-08T07:07:56;5.08;;;2.98;;
9485;SDS011;4781;48.776;9.200;2023-09-08T07:10:24;5.95;;;3.47;;
9485;SDS011;4781;48.776;9.200;2023-09-08T07:12:53;5.80;;;3.20;;
9485;SDS011;4781;48.776;9.200;2023-09-08T07:15:21;6.97;;;3.65;;
9485;SDS011;4781;48.776;9.200;2023-09-08T07:17:49;6.97;;;3.37;;
9485;SDS011;4781;48.776;9.200;2023-09-08T07:20:18;6.20;;;3.47;;
9485;SDS011;4781;48.776;9.200;2023-09-08T07:22:46;7.80;;;3.33;;
9485;SDS011;4781;48.776;9.200;2023-09-08T07:25:15;5.83;;;3.70;;
9485;SDS011;4781;48.776;9.200;2023-09-08T07:27:43;7.30;;;3.62;;
9485;SDS011;4781;48.776;9.200;2023-09-08T07:30:11;5.00;;;3.10;;
9485;SDS011;4781;48.776;9.200;2023-09-08T07:32:40;5.12;;;2.95;;
9485;SDS011;4781;48.776;9.200;2023-09-08T07:35:10;6.83;;;3.40;;
9485;SDS011;4781;48.776;9.200;2023-09-08T07:37:40;5.42;;;3.00;;
9485;SDS011;4781;48.776;9.200;2023-09-08T07:40:09;6.20;;;3.30;;
9485;SDS011;4781;48.776;9.200;2023-09-08T07:42:38;7.60;;;3.80;;
9485;SDS011;4781;48.776;9.200;2023-09-08T07:45:06;6.62;;;3.30;;
9485;SDS011;4781;48.776;9.200;2023-09-08T07:47:35;6.17;;;3.35;;
9485;SDS011;4781;48.776;9.200;2023-09-08T07:50:20;7.47;;;3.30;;
9485;SDS011;4781;48.776;9.200;2023-09-08T07:52:53;7.10;;;3.30;;
9485;SDS011;4781;48.776;9.200;2023-09-08T07:55:23;7.75;;;3.10;;
9485;SDS011;4781;48.776;9.200;2023-09-08T07:57:55;5.37;;;2.77;;
9485;SDS011;4781;48.776;9.200;2023-09-08T08:00:25;5.97;;;3.47;;
9485;SDS011;4781;48.776;9.200;2023-09-08T08:02:54;6.62;;;2.98;;
9485;SDS011;4781;48.776;9.200;2023-09-08T08:05:24;8.10;;;3.05;;
9485;SDS011;4781;48.776;9.200;2023-09-08T08:07:53;5.03;;;2.95;;
9485;SDS011;4781;48.776;9.200;2023-09-08T08:10:21;6.22;;;3.42;;
9485;SDS011;4781;48.776;9.200;2023-09-08T08:12:49;5.03;;;3.30;;
9485;SDS011;4781;48.776;9.200;2023-09-08T08:15:18;5.67;;;3.37;;
9485;SDS011;4781;48.776;9.200;2023-09-08T08:17:48;6.08;;;3.12;;
9485;SDS011;4781;48.776;9.200;2023-09-08T08:20:16;6.17;;;3.45;;
9485;SDS011;4781;48.776;9.200;2023-09-08T08:22:45;6.50;;;3.40;;
9485;SDS011;4781;48.776;9.200;2023-09-08T08:25:14;8.45;;;2.90;;
9485;SDS011;4781;48.776;9.200;2023-09-08T08:27:42;4.83;;;3.02;;
9485;SDS011;4781;48.776;9.200;2023-09-08T08:30:10;6.93;;;3.30;;
9485;SDS011;4781;48.776;9.200;2023-09-08T08:32:39;7.70;;;3.60;;
9485;SDS011;4781;48.776;9.200;2023-09-08T08:35:07;5.42;;;2.90;;
9485;SDS011;4781;48.776;9.200;2023-09-08T08:37:36;5.58;;;3.05;;
9485;SDS011;4781;48.776;9.200;2023-09-08T08:40:09;7.62;;;3.55;;
9485;SDS011;4781;48.776;9.200;2023-09-08T08:42:41;5.72;;;3.20;;
9485;SDS011;4781;48.776;9.200;2023-09-08T08:45:10;5.67;;;3.22;;
9485;SDS011;4781;48.776;9.200;2023-09-08T08:47:40;5.30;;;3.10;;
9485;SDS011;4781;48.776;9.200;2023-09-08T08:50:10;5.80;;;3.00;;
9485;SDS011;4781;48.776;9.200;2023-09-08T08:52:39;5.90;;;3.30;;
9485;SDS011;4781;48.776;9.200;2023-09-08T08:55:08;5.60;;;3.08;;
9485;SDS011;4781;48.776;9.200;2023-09-08T08:57:37;5.70;;;3.15;;
9485;SDS011;4781;48.776;9.200;2023-09-08T09:00:07;8.88;;;3.15;;
9485;SDS011;4781;48.776;9.200;2023-09-08T09:02:43;11.85;;;3.08;;
9485;SDS011;4781;48.776;9.200;2023-09-08T09:05:10;6.05;;;3.08;;
9485;SDS011;4781;48.776;9.200;2023-09-08T09:07:42;5.80;;;3.17;;
9485;SDS011;4781;48.776;9.200;2023-09-08T09:10:11;4.55;;;2.80;;
9485;SDS011;4781;48.776;9.200;2023-09-08T09:12:40;4.62;;;2.77;;
9485;SDS011;4781;48.776;9.200;2023-09-08T09:15:09;5.90;;;2.90;;
9485;SDS011;4781;48.776;9.200;2023-09-08T09:17:37;4.62;;;2.90;;
9485;SDS011;4781;48.776;9.200;2023-09-08T09:20:12;5.25;;;2.75;;
9485;SDS011;4781;48.776;9.200;2023-09-08T09:22:46;5.53;;;2.60;;
9485;SDS011;4781;48.776;9.200;2023-09-08T09:25:25;5.37;;;2.98;;
9485;SDS011;4781;48.776;9.200;2023-09-08T09:27:57;4.60;;;2.50;;
9485;SDS011;4781;48.776;9.200;2023-09-08T09:30:27;4.80;;;2.70;;
9485;SDS011;4781;48.776;9.200;2023-09-08T09:33:14;5.45;;;2.83;;
9485;SDS011;4781;48.776;9.200;2023-09-08T09:35:43;6.62;;;2.85;;
9485;SDS011;4781;48.776;9.200;2023-09-08T09:38:16;7.87;;;3.08;;
9485;SDS011;4781;48.776;9.200;2023-09-08T09:40:46;4.50;;;2.62;;
9485;SDS011;4781;48.776;9.200;2023-09-08T09:43:15;5.35;;;2.77;;
9485;SDS011;4781;48.776;9.200;2023-09-08T09:45:48;6.80;;;2.92;;
9485;SDS011;4781;48.776;9.200;2023-09-08T09:48:16;3.85;;;2.50;;
9485;SDS011;4781;48.776;9.200;2023-09-08T09:50:49;8.63;;;2.85;;
9485;SDS011;4781;48.776;9.200;2023-09-08T09:53:20;4.37;;;2.27;;
9485;SDS011;4781;48.776;9.200;2023-09-08T09:55:49;4.03;;;2.27;;
9485;SDS011;4781;48.776;9.200;2023-09-08T09:58:19;3.95;;;2.20;;
9485;SDS011;4781;48.776;9.200;2023-09-08T10:00:49;6.83;;;2.62;;
9485;SDS011;4781;48.776;9.200;2023-09-08T10:03:20;4.47;;;2.58;;
9485;SDS011;4781;48.776;9.200;2023-09-08T10:05:49;4.10;;;2.58;;
9485;SDS011;4781;48.776;9.200;2023-09-08T10:08:17;4.22;;;2.20;;
9485;SDS011;4781;48.776;9.200;2023-09-08T10:10:46;6.30;;;2.67;;
9485;SDS011;4781;48.776;9.200;2023-09-08T10:13:21;5.42;;;2.75;;
9485;SDS011;4781;48.776;9.200;2023-09-08T10:15:49;4.30;;;2.60;;
9485;SDS011;4781;48.776;9.200;2023-09-08T10:18:21;4.60;;;2.83;;
9485;SDS011;4781;48.776;9.200;2023-09-08T10:20:51;5.28;;;2.70;;
9485;SDS011;4781;48.776;9.200;2023-09-08T10:23:23;5.62;;;2.50;;
9485;SDS011;4781;48.776;9.200;2023-09-08T10:26:02;3.37;;;2.17;;
9485;SDS011;4781;48.776;9.200;2023-09-08T10:28:32;4.33;;;2.40;;
9485;SDS011;4781;48.776;9.200;2023-09-08T10:31:01;3.35;;;2.20;;
9485;SDS011;4781;48.776;9.200;2023-09-08T10:33:31;5.28;;;2.50;;
9485;SDS011;4781;48.776;9.200;2023-09-08T10:36:01;5.78;;;2.65;;
9485;SDS011;4781;48.776;9.200;2023-09-08T10:38:31;5.03;;;2.30;;
9485;SDS011;4781;48.776;9.200;2023-09-08T10:43:54;3.40;;;2.05;;
9485;SDS011;4781;48.776;9.200;2023-09-08T10:46:26;4.08;;;2.27;;
9485;SDS011;4781;48.776;9.200;2023-09-08T10:49:00;4.72;;;2.30;;
9485;SDS011;4781;48.776;9.200;2023-09-08T10:51:34;5.15;;;2.27;;
9485;SDS011;4781;48.776;9.200;2023-09-08T10:54:03;3.58;;;1.87;;
9485;SDS011;4781;48.776;9.200;2023-09-08T10:56:48;4.37;;;2.55;;
9485;SDS011;4781;48.776;9.200;2023-09-08T10:59:50;4.92;;;2.67;;
9485;SDS011;4781;48.776;9.200;2023-09-08T11:01:58;3.65;;;2.20;;
9485;SDS011;4781;48.776;9.200;2023-09-08T11:04:30;4.87;;;2.45;;
9485;SDS011;4781;48.776;9.200;2023-09-08T11:07:02;4.40;;;2.58;;
9485;SDS011;4781;48.776;9.200;2023-09-08T11:09:35;8.45;;;2.60;;
9485;SDS011;4781;48.776;9.200;2023-09-08T11:12:03;5.95;;;2.70;;
9485;SDS011;4781;48.776;9.200;2023-09-08T11:14:34;4.78;;;2.62;;
9485;SDS011;4781;48.776;9.200;2023-09-08T11:17:02;5.53;;;2.20;;
9485;SDS011;4781;48.776;9.200;2023-09-08T11:19:47;5.40;;;2.98;;
9485;SDS011;4781;48.776;9.200;2023-09-08T11:22:16;4.45;;;2.70;;
9485;SDS011;4781;48.776;9.200;2023-09-08T11:24:45;7.00;;;3.50;;
9485;SDS011;4781;48.776;9.200;2023-09-08T11:27:14;5.12;;;2.62;;
9485;SDS011;4781;48.776;9.200;2023-09-08T11:29:43;5.05;;;2.85;;
9485;SDS011;4781;48.776;9.200;2023-09-08T11:32:14;6.53;;;3.00;;
9485;SDS011;4781;48.776;9.200;2023-09-08T11:34:43;4.70;;;2.65;;
9485;SDS011;4781;48.776;9.200;2023-09-08T11:37:12;4.22;;;2.60;;
9485;SDS011;4781;48.776;9.200;2023-09-08T11:39:46;5.15;;;3.00;;
9485;SDS011;4781;48.776;9.200;2023-09-08T11:42:15;4.58;;;2.72;;
9485;SDS011;4781;48.776;9.200;2023-09-08T11:44:43;4.95;;;2.67;;
9485;SDS011;4781;48.776;9.200;2023-09-08T11:47:12;4.58;;;2.60;;
9485;SDS011;4781;48.776;9.200;2023-09-08T11:49:42;4.45;;;2.30;;
9485;SDS011;4781;48.776;9.200;2023-09-08T11:52:11;4.55;;;2.55;;
9485;SDS011;4781;48.776;9.200;2023-09-08T11:54:40;4.78;;;2.72;;
9485;SDS011;4781;48.776;9.200;2023-09-08T11:57:09;4.50;;;2.65;;
9485;SDS011;4781;48.776;9.200;2023-09-08T11:59:38;5.28;;;2.83;;
9485;SDS011;4781;48.776;9.200;2023-09-08T12:02:07;4.58;;;2.60;;
9485;SDS011;4781;48.776;9.200;2023-09-08T12:04:36;4.97;;;2.50;;
9485;SDS011;4781;48.776;9.200;2023-09-08T12:07:04;4.72;;;2.60;;
9485;SDS011;4781;48.776;9.200;2023-09-08T12:09:34;4.17;;;2.30;;
9485;SDS011;4781;48.776;9.200;2023-09-08T12:12:03;4.87;;;2.50;;
9485;SDS011;4781;48.776;9.200;2023-09-08T12:14:39;4.75;;;2.55;;
9485;SDS011;4781;48.776;9.200;2023-09-08T12:17:08;4.63;;;2.73;;
9485;SDS011;4781;48.776;9.200;2023-09-08T12:19:36;4.10;;;2.65;;
9485;SDS011;4781;48.776;9.200;2023-09-08T12:22:07;4.47;;;3.00;;
9485;SDS011;4781;48.776;9.200;2023-09-08T12:24:46;6.03;;;2.33;;
9485;SDS011;4781;48.776;9.200;2023-09-08T12:27:23;5.22;;;3.15;;
9485;SDS011;4781;48.776;9.200;2023-09-08T12:29:52;5.17;;;2.42;;
9485;SDS011;4781;48.776;9.200;2023-09-08T12:32:28;4.20;;;2.20;;
9485;SDS011;4781;48.776;9.200;2023-09-08T12:35:01;4.47;;;2.77;;
9485;SDS011;4781;48.776;9.200;2023-09-08T12:37:32;5.03;;;2.95;;
9485;SDS011;4781;48.776;9.200;2023-09-08T12:40:02;5.78;;;2.90;;
9485;SDS011;4781;48.776;9.200;2023-09-08T12:42:30;5.53;;;3.05;;
9485;SDS011;4781;48.776;9.200;2023-09-08T12:44:59;9.30;;;2.67;;
9485;SDS011;4781;48.776;9.200;2023-09-08T12:47:27;4.35;;;2.42;;
9485;SDS011;4781;48.776;9.200;2023-09-08T12:49:56;4.65;;;2.40;;
9485;SDS011;4781;48.776;9.200;2023-09-08T12:52:24;3.80;;;2.45;;
9485;SDS011;4781;48.776;9.200;2023-09-08T12:54:52;3.85;;;2.30;;
9485;SDS011;4781;48.776;9.200;2023-09-08T12:57:21;4.42;;;2.50;;
9485;SDS011;4781;48.776;9.200;2023-09-08T12:59:49;4.40;;;2.58;;
9485;SDS011;4781;48.776;9.200;2023-09-08T13:02:18;4.45;;;2.55;;
9485;SDS011;4781;48.776;9.200;2023-09-08T13:04:47;4.12;;;2.60;;
9485;SDS011;4781;48.776;9.200;2023-09-08T13:07:16;3.98;;;2.37;;
9485;SDS011;4781;48.776;9.200;2023-09-08T13:09:45;3.67;;;2.15;;
9485;SDS011;4781;48.776;9.200;2023-09-08T13:12:13;4.50;;;2.42;;
9485;SDS011;4781;48.776;9.200;2023-09-08T13:14:42;6.67;;;2.47;;
9485;SDS011;4781;48.776;9.200;2023-09-08T13:17:11;3.90;;;2.50;;
9485;SDS011;4781;48.776;9.200;2023-09-08T13:19:42;8.88;;;2.85;;
9485;SDS011;4781;48.776;9.200;2023-09-08T13:22:11;4.30;;;2.40;;
9485;SDS011;4781;48.776;9.200;2023-09-08T13:24:39;4.35;;;2.85;;
9485;SDS011;4781;48.776;9.200;2023-09-08T13:27:08;4.70;;;2.58;;
9485;SDS011;4781;48.776;9.200;2023-09-08T13:29:37;3.85;;;2.22;;
9485;SDS011;4781;48.776;9.200;2023-09-08T13:32:08;4.55;;;2.60;;
9485;SDS011;4781;48.776;9.200;2023-09-08T13:34:36;4.12;;;2.60;;
9485;SDS011;4781;48.776;9.200;2023-09-08T13:37:05;4.15;;;1.95;;
9485;SDS011;4781;48.776;9.200;2023-09-08T13:39:33;4.00;;;2.33;;
9485;SDS011;4781;48.776;9.200;2023-09-08T13:42:03;4.37;;;2.20;;
9485;SDS011;4781;48.776;9.200;2023-09-08T13:44:31;3.85;;;2.30;;
9485;SDS011;4781;48.776;9.200;2023-09-08T13:47:00;4.97;;;2.62;;
9485;SDS011;4781;48.776;9.200;2023-09-08T13:49:28;4.53;;;2.70;;
9485;SDS011;4781;48.776;9.200;2023-09-08T13:51:56;5.42;;;2.77;;
9485;SDS011;4781;48.776;9.200;2023-09-08T13:54:26;3.90;;;2.25;;
9485;SDS011;4781;48.776;9.200;2023-09-08T13:56:58;3.80;;;2.30;;
9485;SDS011;4781;48.776;9.200;2023-09-08T13:59:29;3.75;;;2.45;;
9485;SDS011;4781;48.776;9.200;2023-09-08T14:01:58;4.87;;;2.77;;
9485;SDS011;4781;48.776;9.200;2023-09-08T14:04:28;5.12;;;2.70;;
9485;SDS011;4781;48.776;9.200;2023-09-08T14:06:56;4.75;;;2.33;;
9485;SDS011;4781;48.776;9.200;2023-09-08T14:09:25;3.55;;;2.10;;
9485;SDS011;4781;48.776;9.200;2023-09-08T14:11:53;4.50;;;2.35;;
9485;SDS011;4781;48.776;9.200;2023-09-08T14:14:22;3.60;;;2.10;;
9485;SDS011;4781;48.776;9.200;2023-09-08T14:16:50;4.97;;;2.42;;
9485;SDS011;4781;48.776;9.200;2023-09-08T14:19:19;4.83;;;2.40;;
9485;SDS011;4781;48.776;9.200;2023-09-08T14:21:47;5.17;;;2.55;;
9485;SDS011;4781;48.776;9.200;2023-09-08T14:24:16;5.95;;;2.33;;
9485;SDS011;4781;48.776;9.200;2023-09-08T14:26:44;3.65;;;2.33;;
9485;SDS011;4781;48.776;9.200;2023-09-08T14:29:12;3.65;;;2.27;;
9485;SDS011;4781;48.776;9.200;2023-09-08T14:31:41;4.00;;;2.72;;
9485;SDS011;4781;48.776;9.200;2023-09-08T14:34:09;4.05;;;2.25;;
9485;SDS011;4781;48.776;9.200;2023-09-08T14:36:38;4.00;;;2.00;;
9485;SDS011;4781;48.776;9.200;2023-09-08T14:39:06;4.83;;;2.55;;
9485;SDS011;4781;48.776;9.200;2023-09-08T14:41:34;4.45;;;2.70;;
9485;SDS011;4781;48.776;9.200;2023-09-08T14:44:03;3.90;;;2.22;;
9485;SDS011;4781;48.776;9.200;2023-09-08T14:46:32;3.98;;;2.17;;
9485;SDS011;4781;48.776;9.200;2023-09-08T14:49:00;3.92;;;2.08;;
9485;SDS011;4781;48.776;9.200;2023-09-08T14:51:28;5.37;;;2.25;;
9485;SDS011;4781;48.776;9.200;2023-09-08T14:53:57;4.78;;;2.10;;
9485;SDS011;4781;48.776;9.200;2023-09-08T14:56:25;4.85;;;2.30;;
9485;SDS011;4781;48.776;9.200;2023-09-08T14:58:53;3.67;;;1.98;;
9485;SDS011;4781;48.776;9.200;2023-09-08T15:01:22;3.90;;;1.92;;
9485;SDS011;4781;48.776;9.200;2023-09-08T15:03:50;5.97;;;2.20;;
9485;SDS011;4781;48.776;9.200;2023-09-08T15:06:20;3.47;;;2.10;;
9485;SDS011;4781;48.776;9.200;2023-09-08T15:08:49;5.22;;;2.42;;
9485;SDS011;4781;48.776;9.200;2023-09-08T15:11:18;4.15;;;2.08;;
9485;SDS011;4781;48.776;9.200;2023-09-08T15:13:47;3.45;;;2.05;;
9485;SDS011;4781;48.776;9.200;2023-09-08T15:16:15;4.10;;;2.12;;
9485;SDS011;4781;48.776;9.200;2023-09-08T15:18:44;4.33;;;2.30;;
9485;SDS011;4781;48.776;9.200;2023-09-08T15:21:12;3.10;;;1.80;;
9485;SDS011;4781;48.776;9.200;2023-09-08T15:23:40;3.90;;;2.37;;
9485;SDS011;4781;48.776;9.200;2023-09-08T15:26:10;4.05;;;2.25;;
9485;SDS011;4781;48.776;9.200;2023-09-08T15:28:39;5.00;;;1.87;;
9485;SDS011;4781;48.776;9.200;2023-09-08T15:31:07;3.22;;;1.80;;
9485;SDS011;4781;48.776;9.200;2023-09-08T15:33:39;4.62;;;2.70;;